sensor_id;sensor_type;location;lat;lon;timestamp;P1;P2;P0
49644;PMS5003;36494;50.730;-1.932;2022-11-20T00:01:52;8;7;
49644;PMS5003;36494;50.730;-1.932;2022-11-20T00:04:17;10;10;
49644;PMS5003;36494;50.730;-1.932;2022-11-20T00:06:43;9;9;
49644;PMS5003;36494;50.730;-1.932;2022-11-20T00:09:09;9;9;
49644;PMS5003;36494;50.730;-1.932;2022-11-20T00:11:33;6;6;
49644;PMS5003;36494;50.730;-1.932;2022-11-20T00:14:00;7;6;
49644;PMS5003;36494;50.730;-1.932;2022-11-20T00:16:25;8;7;
49644;PMS5003;36494;50.730;-1.932;2022-11-20T00:18:50;3;3;
49644;PMS5003;36494;50.730;-1.932;2022-11-20T00:21:16;6;6;
49644;PMS5003;36494;50.730;-1.932;2022-11-20T00:23:41;2;2;
49644;PMS5003;36494;50.730;-1.932;2022-11-20T00:26:07;3;2;
49644;PMS5003;36494;50.730;-1.932;2022-11-20T00:28:31;7;7;
49644;PMS5003;36494;50.730;-1.932;2022-11-20T00:31:00;2;1;
49644;PMS5003;36494;50.730;-1.932;2022-11-20T00:33:21;1;1;
49644;PMS5003;36494;50.730;-1.932;2022-11-20T00:35:47;1;1;
49644;PMS5003;36494;50.730;-1.932;2022-11-20T00:38:12;2;1;
49644;PMS5003;36494;50.730;-1.932;2022-11-20T00:40:37;0;0;
49644;PMS5003;36494;50.730;-1.932;2022-11-20T00:43:03;3;2;
49644;PMS5003;36494;50.730;-1.932;2022-11-20T00:45:28;1;1;
49644;PMS5003;36494;50.730;-1.932;2022-11-20T00:47:54;6;6;
49644;PMS5003;36494;50.730;-1.932;2022-11-20T00:50:19;1;1;
49644;PMS5003;36494;50.730;-1.932;2022-11-20T00:52:44;3;3;
49644;PMS5003;36494;50.730;-1.932;2022-11-20T00:55:10;3;2;
49644;PMS5003;36494;50.730;-1.932;2022-11-20T00:57:35;3;2;
49644;PMS5003;36494;50.730;-1.932;2022-11-20T01:00:00;1;1;
49644;PMS5003;36494;50.730;-1.932;2022-11-20T01:02:26;2;2;
49644;PMS5003;36494;50.730;-1.932;2022-11-20T01:04:51;3;3;
49644;PMS5003;36494;50.730;-1.932;2022-11-20T01:07:16;7;7;
49644;PMS5003;36494;50.730;-1.932;2022-11-20T01:09:42;2;2;
49644;PMS5003;36494;50.730;-1.932;2022-11-20T01:12:07;3;3;
49644;PMS5003;36494;50.730;-1.932;2022-11-20T01:14:32;11;11;
49644;PMS5003;36494;50.730;-1.932;2022-11-20T01:16:58;2;2;
49644;PMS5003;36494;50.730;-1.932;2022-11-20T01:19:23;1;1;
49644;PMS5003;36494;50.730;-1.932;2022-11-20T01:21:49;4;4;
49644;PMS5003;36494;50.730;-1.932;2022-11-20T01:24:14;4;3;
49644;PMS5003;36494;50.730;-1.932;2022-11-20T01:26:40;2;2;
49644;PMS5003;36494;50.730;-1.932;2022-11-20T01:29:05;1;1;
49644;PMS5003;36494;50.730;-1.932;2022-11-20T01:31:30;0;0;
49644;PMS5003;36494;50.730;-1.932;2022-11-20T01:33:56;1;1;
49644;PMS5003;36494;50.730;-1.932;2022-11-20T01:36:21;3;3;
49644;PMS5003;36494;50.730;-1.932;2022-11-20T01:38:46;1;1;
49644;PMS5003;36494;50.730;-1.932;2022-11-20T01:41:12;1;1;
49644;PMS5003;36494;50.730;-1.932;2022-11-20T01:43:36;2;2;
49644;PMS5003;36494;50.730;-1.932;2022-11-20T01:46:04;3;3;
49644;PMS5003;36494;50.730;-1.932;2022-11-20T01:48:29;3;2;
49644;PMS5003;36494;50.730;-1.932;2022-11-20T01:50:53;1;1;
49644;PMS5003;36494;50.730;-1.932;2022-11-20T01:53:18;1;1;
49644;PMS5003;36494;50.730;-1.932;2022-11-20T01:55:44;2;2;
49644;PMS5003;36494;50.730;-1.932;2022-11-20T01:58:09;1;1;
49644;PMS5003;36494;50.730;-1.932;2022-11-20T02:00:34;0;0;
49644;PMS5003;36494;50.730;-1.932;2022-11-20T02:03:00;1;1;
49644;PMS5003;36494;50.730;-1.932;2022-11-20T02:05:28;1;1;
49644;PMS5003;36494;50.730;-1.932;2022-11-20T02:07:50;2;1;
49644;PMS5003;36494;50.730;-1.932;2022-11-20T02:10:15;2;2;
49644;PMS5003;36494;50.730;-1.932;2022-11-20T02:12:41;2;1;
49644;PMS5003;36494;50.730;-1.932;2022-11-20T02:15:06;0;0;
49644;PMS5003;36494;50.730;-1.932;2022-11-20T02:17:31;2;2;
49644;PMS5003;36494;50.730;-1.932;2022-11-20T02:19:57;2;1;
49644;PMS5003;36494;50.730;-1.932;2022-11-20T02:22:24;1;1;
49644;PMS5003;36494;50.730;-1.932;2022-11-20T02:24:48;3;3;
49644;PMS5003;36494;50.730;-1.932;2022-11-20T02:27:14;2;2;
49644;PMS5003;36494;50.730;-1.932;2022-11-20T02:29:39;1;1;
49644;PMS5003;36494;50.730;-1.932;2022-11-20T02:32:04;3;3;
49644;PMS5003;36494;50.730;-1.932;2022-11-20T02:34:29;1;1;
49644;PMS5003;36494;50.730;-1.932;2022-11-20T02:36:54;2;2;
49644;PMS5003;36494;50.730;-1.932;2022-11-20T02:39:20;1;1;
49644;PMS5003;36494;50.730;-1.932;2022-11-20T02:41:45;4;3;
49644;PMS5003;36494;50.730;-1.932;2022-11-20T02:44:10;1;1;
49644;PMS5003;36494;50.730;-1.932;2022-11-20T02:46:35;1;1;
49644;PMS5003;36494;50.730;-1.932;2022-11-20T02:49:01;2;2;
49644;PMS5003;36494;50.730;-1.932;2022-11-20T02:51:26;1;1;
49644;PMS5003;36494;50.730;-1.932;2022-11-20T02:53:51;1;1;
49644;PMS5003;36494;50.730;-1.932;2022-11-20T02:56:16;1;1;
49644;PMS5003;36494;50.730;-1.932;2022-11-20T02:58:42;1;1;
49644;PMS5003;36494;50.730;-1.932;2022-11-20T03:01:07;2;1;
49644;PMS5003;36494;50.730;-1.932;2022-11-20T03:03:32;0;0;
49644;PMS5003;36494;50.730;-1.932;2022-11-20T03:05:58;0;0;
49644;PMS5003;36494;50.730;-1.932;2022-11-20T03:08:23;1;1;
49644;PMS5003;36494;50.730;-1.932;2022-11-20T03:10:48;2;0;
49644;PMS5003;36494;50.730;-1.932;2022-11-20T03:13:14;0;0;
49644;PMS5003;36494;50.730;-1.932;2022-11-20T03:15:39;1;0;
49644;PMS5003;36494;50.730;-1.932;2022-11-20T03:18:05;2;1;
49644;PMS5003;36494;50.730;-1.932;2022-11-20T03:20:32;0;0;
49644;PMS5003;36494;50.730;-1.932;2022-11-20T03:22:55;0;0;
49644;PMS5003;36494;50.730;-1.932;2022-11-20T03:25:21;0;0;
49644;PMS5003;36494;50.730;-1.932;2022-11-20T03:27:46;1;0;
49644;PMS5003;36494;50.730;-1.932;2022-11-20T03:30:11;0;0;
49644;PMS5003;36494;50.730;-1.932;2022-11-20T03:32:37;0;0;
49644;PMS5003;36494;50.730;-1.932;2022-11-20T03:35:02;0;0;
49644;PMS5003;36494;50.730;-1.932;2022-11-20T03:37:27;1;0;
49644;PMS5003;36494;50.730;-1.932;2022-11-20T03:39:53;0;0;
49644;PMS5003;36494;50.730;-1.932;2022-11-20T03:42:18;1;1;
49644;PMS5003;36494;50.730;-1.932;2022-11-20T03:44:43;1;0;
49644;PMS5003;36494;50.730;-1.932;2022-11-20T03:47:09;0;0;
49644;PMS5003;36494;50.730;-1.932;2022-11-20T03:49:34;0;0;
49644;PMS5003;36494;50.730;-1.932;2022-11-20T03:51:59;0;0;
49644;PMS5003;36494;50.730;-1.932;2022-11-20T03:54:25;0;0;
49644;PMS5003;36494;50.730;-1.932;2022-11-20T03:56:50;0;0;
49644;PMS5003;36494;50.730;-1.932;2022-11-20T03:59:16;0;0;
49644;PMS5003;36494;50.730;-1.932;2022-11-20T04:01:41;0;0;
49644;PMS5003;36494;50.730;-1.932;2022-11-20T04:04:07;1;0;
49644;PMS5003;36494;50.730;-1.932;2022-11-20T04:06:34;0;0;
49644;PMS5003;36494;50.730;-1.932;2022-11-20T04:08:57;0;0;
49644;PMS5003;36494;50.730;-1.932;2022-11-20T04:11:24;0;0;
49644;PMS5003;36494;50.730;-1.932;2022-11-20T04:13:49;0;0;
49644;PMS5003;36494;50.730;-1.932;2022-11-20T04:16:14;0;0;
49644;PMS5003;36494;50.730;-1.932;2022-11-20T04:18:39;0;0;
49644;PMS5003;36494;50.730;-1.932;2022-11-20T04:21:04;0;0;
49644;PMS5003;36494;50.730;-1.932;2022-11-20T04:23:29;0;0;
49644;PMS5003;36494;50.730;-1.932;2022-11-20T04:26:00;0;0;
49644;PMS5003;36494;50.730;-1.932;2022-11-20T04:28:20;0;0;
49644;PMS5003;36494;50.730;-1.932;2022-11-20T04:30:46;0;0;
49644;PMS5003;36494;50.730;-1.932;2022-11-20T04:33:11;2;1;
49644;PMS5003;36494;50.730;-1.932;2022-11-20T04:35:37;0;0;
49644;PMS5003;36494;50.730;-1.932;2022-11-20T04:38:02;0;0;
49644;PMS5003;36494;50.730;-1.932;2022-11-20T04:40:28;0;0;
49644;PMS5003;36494;50.730;-1.932;2022-11-20T04:42:53;0;0;
49644;PMS5003;36494;50.730;-1.932;2022-11-20T04:45:18;0;0;
49644;PMS5003;36494;50.730;-1.932;2022-11-20T04:47:43;0;0;
49644;PMS5003;36494;50.730;-1.932;2022-11-20T04:50:09;1;1;
49644;PMS5003;36494;50.730;-1.932;2022-11-20T04:52:35;0;0;
49644;PMS5003;36494;50.730;-1.932;2022-11-20T04:55:00;0;0;
49644;PMS5003;36494;50.730;-1.932;2022-11-20T04:57:25;0;0;
49644;PMS5003;36494;50.730;-1.932;2022-11-20T04:59:51;0;0;
49644;PMS5003;36494;50.730;-1.932;2022-11-20T05:02:16;0;0;
49644;PMS5003;36494;50.730;-1.932;2022-11-20T05:04:41;0;0;
49644;PMS5003;36494;50.730;-1.932;2022-11-20T05:07:07;0;0;
49644;PMS5003;36494;50.730;-1.932;2022-11-20T05:09:32;0;0;
49644;PMS5003;36494;50.730;-1.932;2022-11-20T05:11:57;0;0;
49644;PMS5003;36494;50.730;-1.932;2022-11-20T05:14:23;0;0;
49644;PMS5003;36494;50.730;-1.932;2022-11-20T05:16:48;0;0;
49644;PMS5003;36494;50.730;-1.932;2022-11-20T05:19:14;0;0;
49644;PMS5003;36494;50.730;-1.932;2022-11-20T05:21:39;0;0;
49644;PMS5003;36494;50.730;-1.932;2022-11-20T05:24:04;0;0;
49644;PMS5003;36494;50.730;-1.932;2022-11-20T05:26:30;0;0;
49644;PMS5003;36494;50.730;-1.932;2022-11-20T05:28:55;0;0;
49644;PMS5003;36494;50.730;-1.932;2022-11-20T05:31:21;1;0;
49644;PMS5003;36494;50.730;-1.932;2022-11-20T05:33:46;0;0;
49644;PMS5003;36494;50.730;-1.932;2022-11-20T05:36:11;0;0;
49644;PMS5003;36494;50.730;-1.932;2022-11-20T05:38:36;0;0;
49644;PMS5003;36494;50.730;-1.932;2022-11-20T05:41:03;1;1;
49644;PMS5003;36494;50.730;-1.932;2022-11-20T05:43:27;1;1;
49644;PMS5003;36494;50.730;-1.932;2022-11-20T05:45:52;1;1;
49644;PMS5003;36494;50.730;-1.932;2022-11-20T05:48:17;1;1;
49644;PMS5003;36494;50.730;-1.932;2022-11-20T05:50:43;2;2;
49644;PMS5003;36494;50.730;-1.932;2022-11-20T05:53:08;3;3;
49644;PMS5003;36494;50.730;-1.932;2022-11-20T05:55:33;2;2;
49644;PMS5003;36494;50.730;-1.932;2022-11-20T05:57:59;1;1;
49644;PMS5003;36494;50.730;-1.932;2022-11-20T06:00:24;1;1;
49644;PMS5003;36494;50.730;-1.932;2022-11-20T06:02:50;2;2;
49644;PMS5003;36494;50.730;-1.932;2022-11-20T06:05:15;1;1;
49644;PMS5003;36494;50.730;-1.932;2022-11-20T06:07:40;3;3;
49644;PMS5003;36494;50.730;-1.932;2022-11-20T06:10:06;2;2;
49644;PMS5003;36494;50.730;-1.932;2022-11-20T06:12:31;2;2;
49644;PMS5003;36494;50.730;-1.932;2022-11-20T06:14:56;5;5;
49644;PMS5003;36494;50.730;-1.932;2022-11-20T06:17:21;4;2;
49644;PMS5003;36494;50.730;-1.932;2022-11-20T06:19:47;6;5;
49644;PMS5003;36494;50.730;-1.932;2022-11-20T06:22:13;3;3;
49644;PMS5003;36494;50.730;-1.932;2022-11-20T06:24:38;3;3;
49644;PMS5003;36494;50.730;-1.932;2022-11-20T06:27:03;4;4;
49644;PMS5003;36494;50.730;-1.932;2022-11-20T06:29:28;4;4;
49644;PMS5003;36494;50.730;-1.932;2022-11-20T06:31:54;4;4;
49644;PMS5003;36494;50.730;-1.932;2022-11-20T06:34:19;4;3;
49644;PMS5003;36494;50.730;-1.932;2022-11-20T06:36:44;2;2;
49644;PMS5003;36494;50.730;-1.932;2022-11-20T06:39:10;4;4;
49644;PMS5003;36494;50.730;-1.932;2022-11-20T06:41:35;3;3;
49644;PMS5003;36494;50.730;-1.932;2022-11-20T06:44:01;4;2;
49644;PMS5003;36494;50.730;-1.932;2022-11-20T06:46:26;4;4;
49644;PMS5003;36494;50.730;-1.932;2022-11-20T06:48:52;4;3;
49644;PMS5003;36494;50.730;-1.932;2022-11-20T06:51:17;3;3;
49644;PMS5003;36494;50.730;-1.932;2022-11-20T06:53:42;3;3;
49644;PMS5003;36494;50.730;-1.932;2022-11-20T06:56:08;3;3;
49644;PMS5003;36494;50.730;-1.932;2022-11-20T06:58:34;5;4;
49644;PMS5003;36494;50.730;-1.932;2022-11-20T07:00:59;3;3;
49644;PMS5003;36494;50.730;-1.932;2022-11-20T07:03:24;3;2;
49644;PMS5003;36494;50.730;-1.932;2022-11-20T07:05:49;6;5;
49644;PMS5003;36494;50.730;-1.932;2022-11-20T07:08:14;3;3;
49644;PMS5003;36494;50.730;-1.932;2022-11-20T07:10:40;6;6;
49644;PMS5003;36494;50.730;-1.932;2022-11-20T07:13:05;4;3;
49644;PMS5003;36494;50.730;-1.932;2022-11-20T07:15:30;3;3;
49644;PMS5003;36494;50.730;-1.932;2022-11-20T07:17:58;3;2;
49644;PMS5003;36494;50.730;-1.932;2022-11-20T07:20:21;4;4;
49644;PMS5003;36494;50.730;-1.932;2022-11-20T07:22:47;4;3;
49644;PMS5003;36494;50.730;-1.932;2022-11-20T07:25:12;5;4;
49644;PMS5003;36494;50.730;-1.932;2022-11-20T07:27:38;6;6;
49644;PMS5003;36494;50.730;-1.932;2022-11-20T07:30:03;3;3;
49644;PMS5003;36494;50.730;-1.932;2022-11-20T07:32:28;5;5;
49644;PMS5003;36494;50.730;-1.932;2022-11-20T07:34:53;4;4;
49644;PMS5003;36494;50.730;-1.932;2022-11-20T07:37:20;3;2;
49644;PMS5003;36494;50.730;-1.932;2022-11-20T07:39:44;8;6;
49644;PMS5003;36494;50.730;-1.932;2022-11-20T07:42:10;5;4;
49644;PMS5003;36494;50.730;-1.932;2022-11-20T07:44:35;6;6;
49644;PMS5003;36494;50.730;-1.932;2022-11-20T07:47:01;7;7;
49644;PMS5003;36494;50.730;-1.932;2022-11-20T07:49:26;7;7;
49644;PMS5003;36494;50.730;-1.932;2022-11-20T07:51:51;8;7;
49644;PMS5003;36494;50.730;-1.932;2022-11-20T07:54:16;6;6;
49644;PMS5003;36494;50.730;-1.932;2022-11-20T07:56:41;7;7;
49644;PMS5003;36494;50.730;-1.932;2022-11-20T07:59:07;6;5;
49644;PMS5003;36494;50.730;-1.932;2022-11-20T08:01:32;10;7;
49644;PMS5003;36494;50.730;-1.932;2022-11-20T08:03:57;7;7;
49644;PMS5003;36494;50.730;-1.932;2022-11-20T08:06:22;8;7;
49644;PMS5003;36494;50.730;-1.932;2022-11-20T08:08:48;8;7;
49644;PMS5003;36494;50.730;-1.932;2022-11-20T08:11:13;7;6;
49644;PMS5003;36494;50.730;-1.932;2022-11-20T08:13:38;7;6;
49644;PMS5003;36494;50.730;-1.932;2022-11-20T08:16:04;7;6;
49644;PMS5003;36494;50.730;-1.932;2022-11-20T08:18:29;4;4;
49644;PMS5003;36494;50.730;-1.932;2022-11-20T08:20:55;10;8;
49644;PMS5003;36494;50.730;-1.932;2022-11-20T08:23:20;4;4;
49644;PMS5003;36494;50.730;-1.932;2022-11-20T08:25:48;6;6;
49644;PMS5003;36494;50.730;-1.932;2022-11-20T08:28:10;8;6;
49644;PMS5003;36494;50.730;-1.932;2022-11-20T08:30:36;4;4;
49644;PMS5003;36494;50.730;-1.932;2022-11-20T08:33:02;6;6;
49644;PMS5003;36494;50.730;-1.932;2022-11-20T08:35:26;4;4;
49644;PMS5003;36494;50.730;-1.932;2022-11-20T08:37:51;3;3;
49644;PMS5003;36494;50.730;-1.932;2022-11-20T08:40:16;6;6;
49644;PMS5003;36494;50.730;-1.932;2022-11-20T08:42:47;5;5;
49644;PMS5003;36494;50.730;-1.932;2022-11-20T08:45:07;5;5;
49644;PMS5003;36494;50.730;-1.932;2022-11-20T08:47:32;10;9;
49644;PMS5003;36494;50.730;-1.932;2022-11-20T08:49:57;27;27;
49644;PMS5003;36494;50.730;-1.932;2022-11-20T08:52:22;9;9;
49644;PMS5003;36494;50.730;-1.932;2022-11-20T08:54:47;8;8;
49644;PMS5003;36494;50.730;-1.932;2022-11-20T08:57:13;8;7;
49644;PMS5003;36494;50.730;-1.932;2022-11-20T08:59:38;6;6;
49644;PMS5003;36494;50.730;-1.932;2022-11-20T09:02:03;5;5;
49644;PMS5003;36494;50.730;-1.932;2022-11-20T09:04:28;6;6;
49644;PMS5003;36494;50.730;-1.932;2022-11-20T09:06:53;4;3;
49644;PMS5003;36494;50.730;-1.932;2022-11-20T09:09:18;8;6;
49644;PMS5003;36494;50.730;-1.932;2022-11-20T09:11:43;4;3;
49644;PMS5003;36494;50.730;-1.932;2022-11-20T09:14:09;4;4;
49644;PMS5003;36494;50.730;-1.932;2022-11-20T09:16:35;6;6;
49644;PMS5003;36494;50.730;-1.932;2022-11-20T09:18:59;5;5;
49644;PMS5003;36494;50.730;-1.932;2022-11-20T09:21:25;7;6;
49644;PMS5003;36494;50.730;-1.932;2022-11-20T09:23:50;7;6;
49644;PMS5003;36494;50.730;-1.932;2022-11-20T09:26:16;7;7;
49644;PMS5003;36494;50.730;-1.932;2022-11-20T09:28:41;7;6;
49644;PMS5003;36494;50.730;-1.932;2022-11-20T09:31:06;11;10;
49644;PMS5003;36494;50.730;-1.932;2022-11-20T09:33:32;7;5;
49644;PMS5003;36494;50.730;-1.932;2022-11-20T09:35:57;6;5;
49644;PMS5003;36494;50.730;-1.932;2022-11-20T09:38:22;8;6;
49644;PMS5003;36494;50.730;-1.932;2022-11-20T09:40:50;5;5;
49644;PMS5003;36494;50.730;-1.932;2022-11-20T09:43:13;7;6;
49644;PMS5003;36494;50.730;-1.932;2022-11-20T09:45:41;5;4;
49644;PMS5003;36494;50.730;-1.932;2022-11-20T09:48:05;6;6;
49644;PMS5003;36494;50.730;-1.932;2022-11-20T09:50:30;5;4;
49644;PMS5003;36494;50.730;-1.932;2022-11-20T09:52:57;6;5;
49644;PMS5003;36494;50.730;-1.932;2022-11-20T09:55:18;5;5;
49644;PMS5003;36494;50.730;-1.932;2022-11-20T09:57:44;5;4;
49644;PMS5003;36494;50.730;-1.932;2022-11-20T10:00:09;4;4;
49644;PMS5003;36494;50.730;-1.932;2022-11-20T10:02:35;4;4;
49644;PMS5003;36494;50.730;-1.932;2022-11-20T10:05:02;10;8;
49644;PMS5003;36494;50.730;-1.932;2022-11-20T10:07:27;4;4;
49644;PMS5003;36494;50.730;-1.932;2022-11-20T10:09:52;3;3;
49644;PMS5003;36494;50.730;-1.932;2022-11-20T10:12:18;6;6;
49644;PMS5003;36494;50.730;-1.932;2022-11-20T10:14:45;5;5;
49644;PMS5003;36494;50.730;-1.932;2022-11-20T10:17:10;5;5;
49644;PMS5003;36494;50.730;-1.932;2022-11-20T10:19:37;7;7;
49644;PMS5003;36494;50.730;-1.932;2022-11-20T10:22:00;7;7;
49644;PMS5003;36494;50.730;-1.932;2022-11-20T10:24:27;5;5;
49644;PMS5003;36494;50.730;-1.932;2022-11-20T10:26:51;5;5;
49644;PMS5003;36494;50.730;-1.932;2022-11-20T10:29:15;7;5;
49644;PMS5003;36494;50.730;-1.932;2022-11-20T10:31:40;9;8;
49644;PMS5003;36494;50.730;-1.932;2022-11-20T10:34:05;5;5;
49644;PMS5003;36494;50.730;-1.932;2022-11-20T10:36:30;5;5;
49644;PMS5003;36494;50.730;-1.932;2022-11-20T10:38:56;9;8;
49644;PMS5003;36494;50.730;-1.932;2022-11-20T10:41:24;8;6;
49644;PMS5003;36494;50.730;-1.932;2022-11-20T10:43:46;7;5;
49644;PMS5003;36494;50.730;-1.932;2022-11-20T10:46:13;6;6;
49644;PMS5003;36494;50.730;-1.932;2022-11-20T10:48:37;5;5;
49644;PMS5003;36494;50.730;-1.932;2022-11-20T10:51:05;4;4;
49644;PMS5003;36494;50.730;-1.932;2022-11-20T10:53:33;5;4;
49644;PMS5003;36494;50.730;-1.932;2022-11-20T10:55:53;6;6;
49644;PMS5003;36494;50.730;-1.932;2022-11-20T10:58:20;8;6;
49644;PMS5003;36494;50.730;-1.932;2022-11-20T11:00:43;6;5;
49644;PMS5003;36494;50.730;-1.932;2022-11-20T11:03:13;4;4;
49644;PMS5003;36494;50.730;-1.932;2022-11-20T11:05:36;8;7;
49644;PMS5003;36494;50.730;-1.932;2022-11-20T11:07:59;5;5;
49644;PMS5003;36494;50.730;-1.932;2022-11-20T11:10:24;5;3;
49644;PMS5003;36494;50.730;-1.932;2022-11-20T11:12:49;3;3;
49644;PMS5003;36494;50.730;-1.932;2022-11-20T11:15:23;3;3;
49644;PMS5003;36494;50.730;-1.932;2022-11-20T11:17:45;10;8;
49644;PMS5003;36494;50.730;-1.932;2022-11-20T11:20:11;9;7;
49644;PMS5003;36494;50.730;-1.932;2022-11-20T11:22:32;5;5;
49644;PMS5003;36494;50.730;-1.932;2022-11-20T11:24:56;9;7;
49644;PMS5003;36494;50.730;-1.932;2022-11-20T11:27:21;6;6;
49644;PMS5003;36494;50.730;-1.932;2022-11-20T11:29:47;6;4;
49644;PMS5003;36494;50.730;-1.932;2022-11-20T11:32:14;6;6;
49644;PMS5003;36494;50.730;-1.932;2022-11-20T11:34:38;6;5;
49644;PMS5003;36494;50.730;-1.932;2022-11-20T11:37:04;5;5;
49644;PMS5003;36494;50.730;-1.932;2022-11-20T11:39:30;6;5;
49644;PMS5003;36494;50.730;-1.932;2022-11-20T11:41:55;6;5;
49644;PMS5003;36494;50.730;-1.932;2022-11-20T11:44:21;5;5;
49644;PMS5003;36494;50.730;-1.932;2022-11-20T11:46:51;5;5;
49644;PMS5003;36494;50.730;-1.932;2022-11-20T11:49:15;9;8;
49644;PMS5003;36494;50.730;-1.932;2022-11-20T11:51:36;5;4;
49644;PMS5003;36494;50.730;-1.932;2022-11-20T11:54:01;8;5;
49644;PMS5003;36494;50.730;-1.932;2022-11-20T11:56:26;8;7;
49644;PMS5003;36494;50.730;-1.932;2022-11-20T11:58:52;6;5;
49644;PMS5003;36494;50.730;-1.932;2022-11-20T12:01:21;5;5;
49644;PMS5003;36494;50.730;-1.932;2022-11-20T12:03:43;5;5;
49644;PMS5003;36494;50.730;-1.932;2022-11-20T12:06:10;5;5;
49644;PMS5003;36494;50.730;-1.932;2022-11-20T12:08:37;6;5;
49644;PMS5003;36494;50.730;-1.932;2022-11-20T12:11:00;5;4;
49644;PMS5003;36494;50.730;-1.932;2022-11-20T12:13:42;5;5;
49644;PMS5003;36494;50.730;-1.932;2022-11-20T12:15:51;6;5;
49644;PMS5003;36494;50.730;-1.932;2022-11-20T12:18:17;5;4;
49644;PMS5003;36494;50.730;-1.932;2022-11-20T12:20:50;6;5;
49644;PMS5003;36494;50.730;-1.932;2022-11-20T12:23:07;3;3;
49644;PMS5003;36494;50.730;-1.932;2022-11-20T12:25:32;4;4;
49644;PMS5003;36494;50.730;-1.932;2022-11-20T12:28:01;4;4;
49644;PMS5003;36494;50.730;-1.932;2022-11-20T12:30:23;4;4;
49644;PMS5003;36494;50.730;-1.932;2022-11-20T12:32:51;3;3;
49644;PMS5003;36494;50.730;-1.932;2022-11-20T12:35:19;7;5;
49644;PMS5003;36494;50.730;-1.932;2022-11-20T12:37:42;5;5;
49644;PMS5003;36494;50.730;-1.932;2022-11-20T12:40:11;4;4;
49644;PMS5003;36494;50.730;-1.932;2022-11-20T12:42:38;3;2;
49644;PMS5003;36494;50.730;-1.932;2022-11-20T12:45:03;6;5;
49644;PMS5003;36494;50.730;-1.932;2022-11-20T12:47:22;7;7;
49644;PMS5003;36494;50.730;-1.932;2022-11-20T12:49:47;8;7;
49644;PMS5003;36494;50.730;-1.932;2022-11-20T12:52:15;5;3;
49644;PMS5003;36494;50.730;-1.932;2022-11-20T12:54:42;6;5;
49644;PMS5003;36494;50.730;-1.932;2022-11-20T12:57:03;7;6;
49644;PMS5003;36494;50.730;-1.932;2022-11-20T12:59:32;7;7;
49644;PMS5003;36494;50.730;-1.932;2022-11-20T13:01:54;4;4;
49644;PMS5003;36494;50.730;-1.932;2022-11-20T13:04:24;8;7;
49644;PMS5003;36494;50.730;-1.932;2022-11-20T13:06:43;9;7;
49644;PMS5003;36494;50.730;-1.932;2022-11-20T13:09:09;7;6;
49644;PMS5003;36494;50.730;-1.932;2022-11-20T13:11:36;6;5;
49644;PMS5003;36494;50.730;-1.932;2022-11-20T13:14:03;7;6;
49644;PMS5003;36494;50.730;-1.932;2022-11-20T13:16:26;8;7;
49644;PMS5003;36494;50.730;-1.932;2022-11-20T13:18:50;10;9;
49644;PMS5003;36494;50.730;-1.932;2022-11-20T13:21:16;8;7;
49644;PMS5003;36494;50.730;-1.932;2022-11-20T13:23:41;7;6;
49644;PMS5003;36494;50.730;-1.932;2022-11-20T13:28:32;7;6;
49644;PMS5003;36494;50.730;-1.932;2022-11-20T13:30:57;8;7;
49644;PMS5003;36494;50.730;-1.932;2022-11-20T13:33:23;4;4;
49644;PMS5003;36494;50.730;-1.932;2022-11-20T13:35:54;6;6;
49644;PMS5003;36494;50.730;-1.932;2022-11-20T13:38:14;8;8;
49644;PMS5003;36494;50.730;-1.932;2022-11-20T13:40:49;7;4;
49644;PMS5003;36494;50.730;-1.932;2022-11-20T13:43:07;6;5;
49644;PMS5003;36494;50.730;-1.932;2022-11-20T13:45:29;6;6;
49644;PMS5003;36494;50.730;-1.932;2022-11-20T13:47:55;5;5;
49644;PMS5003;36494;50.730;-1.932;2022-11-20T13:50:21;5;5;
49644;PMS5003;36494;50.730;-1.932;2022-11-20T13:52:49;5;5;
49644;PMS5003;36494;50.730;-1.932;2022-11-20T13:55:14;6;6;
49644;PMS5003;36494;50.730;-1.932;2022-11-20T13:57:42;7;7;
49644;PMS5003;36494;50.730;-1.932;2022-11-20T14:00:07;6;5;
49644;PMS5003;36494;50.730;-1.932;2022-11-20T14:02:30;7;7;
49644;PMS5003;36494;50.730;-1.932;2022-11-20T14:04:56;7;7;
49644;PMS5003;36494;50.730;-1.932;2022-11-20T14:07:22;9;7;
49644;PMS5003;36494;50.730;-1.932;2022-11-20T14:09:50;4;4;
49644;PMS5003;36494;50.730;-1.932;2022-11-20T14:12:15;3;3;
49644;PMS5003;36494;50.730;-1.932;2022-11-20T14:14:46;4;4;
49644;PMS5003;36494;50.730;-1.932;2022-11-20T14:17:05;3;3;
49644;PMS5003;36494;50.730;-1.932;2022-11-20T14:19:29;2;2;
49644;PMS5003;36494;50.730;-1.932;2022-11-20T14:21:55;4;4;
49644;PMS5003;36494;50.730;-1.932;2022-11-20T14:24:20;3;3;
49644;PMS5003;36494;50.730;-1.932;2022-11-20T14:26:45;2;2;
49644;PMS5003;36494;50.730;-1.932;2022-11-20T14:29:11;2;2;
49644;PMS5003;36494;50.730;-1.932;2022-11-20T14:31:35;2;2;
49644;PMS5003;36494;50.730;-1.932;2022-11-20T14:34:01;1;1;
49644;PMS5003;36494;50.730;-1.932;2022-11-20T14:36:26;2;2;
49644;PMS5003;36494;50.730;-1.932;2022-11-20T14:38:51;3;2;
49644;PMS5003;36494;50.730;-1.932;2022-11-20T14:41:17;2;2;
49644;PMS5003;36494;50.730;-1.932;2022-11-20T14:43:45;1;1;
49644;PMS5003;36494;50.730;-1.932;2022-11-20T14:46:08;0;0;
49644;PMS5003;36494;50.730;-1.932;2022-11-20T14:48:34;1;1;
49644;PMS5003;36494;50.730;-1.932;2022-11-20T14:50:59;6;5;
49644;PMS5003;36494;50.730;-1.932;2022-11-20T14:53:25;2;2;
49644;PMS5003;36494;50.730;-1.932;2022-11-20T14:55:54;3;3;
49644;PMS5003;36494;50.730;-1.932;2022-11-20T14:58:20;2;1;
49644;PMS5003;36494;50.730;-1.932;2022-11-20T15:00:40;2;2;
49644;PMS5003;36494;50.730;-1.932;2022-11-20T15:08:04;3;3;
49644;PMS5003;36494;50.730;-1.932;2022-11-20T15:10:22;1;1;
49644;PMS5003;36494;50.730;-1.932;2022-11-20T15:12:48;2;2;
49644;PMS5003;36494;50.730;-1.932;2022-11-20T15:15:14;0;0;
49644;PMS5003;36494;50.730;-1.932;2022-11-20T15:17:38;3;3;
49644;PMS5003;36494;50.730;-1.932;2022-11-20T15:20:04;2;2;
49644;PMS5003;36494;50.730;-1.932;2022-11-20T15:22:29;3;3;
49644;PMS5003;36494;50.730;-1.932;2022-11-20T15:24:54;5;5;
49644;PMS5003;36494;50.730;-1.932;2022-11-20T15:27:20;1;1;
49644;PMS5003;36494;50.730;-1.932;2022-11-20T15:29:46;4;4;
49644;PMS5003;36494;50.730;-1.932;2022-11-20T15:32:11;3;3;
49644;PMS5003;36494;50.730;-1.932;2022-11-20T15:34:36;2;2;
49644;PMS5003;36494;50.730;-1.932;2022-11-20T15:37:02;4;2;
49644;PMS5003;36494;50.730;-1.932;2022-11-20T15:39:27;2;2;
49644;PMS5003;36494;50.730;-1.932;2022-11-20T15:41:52;3;3;
49644;PMS5003;36494;50.730;-1.932;2022-11-20T15:44:17;10;10;
49644;PMS5003;36494;50.730;-1.932;2022-11-20T15:46:42;12;10;
49644;PMS5003;36494;50.730;-1.932;2022-11-20T15:49:09;7;7;
49644;PMS5003;36494;50.730;-1.932;2022-11-20T15:51:34;5;5;
49644;PMS5003;36494;50.730;-1.932;2022-11-20T15:53:59;11;11;
49644;PMS5003;36494;50.730;-1.932;2022-11-20T15:56:24;6;6;
49644;PMS5003;36494;50.730;-1.932;2022-11-20T15:58:49;9;8;
49644;PMS5003;36494;50.730;-1.932;2022-11-20T16:01:15;4;4;
49644;PMS5003;36494;50.730;-1.932;2022-11-20T16:03:40;8;7;
49644;PMS5003;36494;50.730;-1.932;2022-11-20T16:06:05;13;13;
49644;PMS5003;36494;50.730;-1.932;2022-11-20T16:08:31;11;11;
49644;PMS5003;36494;50.730;-1.932;2022-11-20T16:10:56;11;10;
49644;PMS5003;36494;50.730;-1.932;2022-11-20T16:13:22;11;11;
49644;PMS5003;36494;50.730;-1.932;2022-11-20T16:15:50;11;10;
49644;PMS5003;36494;50.730;-1.932;2022-11-20T16:18:13;12;12;
49644;PMS5003;36494;50.730;-1.932;2022-11-20T16:20:38;18;16;
49644;PMS5003;36494;50.730;-1.932;2022-11-20T16:23:04;17;17;
49644;PMS5003;36494;50.730;-1.932;2022-11-20T16:25:29;11;11;
49644;PMS5003;36494;50.730;-1.932;2022-11-20T16:27:54;10;10;